sensor_id;sensor_type;location;lat;lon;timestamp;pressure;altitude;pressure_sealevel;temperature;humidity
8575;BME280;4325;42.520;27.448;2023-02-11T00:01:19;103182.47;;;-4.17;100.00
8575;BME280;4325;42.520;27.448;2023-02-11T00:03:47;103174.94;;;-4.12;100.00
8575;BME280;4325;42.520;27.448;2023-02-11T00:06:14;103173.22;;;-4.13;100.00
8575;BME280;4325;42.520;27.448;2023-02-11T00:08:41;103174.94;;;-4.12;100.00
8575;BME280;4325;42.520;27.448;2023-02-11T00:11:11;103166.41;;;-4.17;100.00
8575;BME280;4325;42.520;27.448;2023-02-11T00:13:38;103176.13;;;-4.16;100.00
8575;BME280;4325;42.520;27.448;2023-02-11T00:16:08;103170.28;;;-4.21;100.00
8575;BME280;4325;42.520;27.448;2023-02-11T00:18:35;103164.09;;;-4.21;100.00
8575;BME280;4325;42.520;27.448;2023-02-11T00:21:05;103167.38;;;-4.18;100.00
8575;BME280;4325;42.520;27.448;2023-02-11T00:23:33;103169.81;;;-4.15;100.00
8575;BME280;4325;42.520;27.448;2023-02-11T00:26:00;103167.66;;;-4.10;100.00
8575;BME280;4325;42.520;27.448;2023-02-11T00:28:27;103167.53;;;-4.08;100.00
8575;BME280;4325;42.520;27.448;2023-02-11T00:30:54;103167.28;;;-4.05;100.00
8575;BME280;4325;42.520;27.448;2023-02-11T00:33:23;103168.38;;;-4.08;99.24
8575;BME280;4325;42.520;27.448;2023-02-11T00:35:50;103171.28;;;-4.11;97.57
8575;BME280;4325;42.520;27.448;2023-02-11T00:38:17;103166.00;;;-4.23;96.66
8575;BME280;4325;42.520;27.448;2023-02-11T00:40:44;103172.00;;;-4.20;97.45
8575;BME280;4325;42.520;27.448;2023-02-11T00:43:11;103141.78;;;-4.33;97.47
8575;BME280;4325;42.520;27.448;2023-02-11T00:45:37;103162.75;;;-4.16;97.40
8575;BME280;4325;42.520;27.448;2023-02-11T00:48:04;103170.03;;;-4.18;96.96
8575;BME280;4325;42.520;27.448;2023-02-11T00:50:33;103159.34;;;-4.18;97.00
8575;BME280;4325;42.520;27.448;2023-02-11T00:52:59;103159.13;;;-4.15;96.62
8575;BME280;4325;42.520;27.448;2023-02-11T00:55:26;103159.13;;;-4.15;97.40
8575;BME280;4325;42.520;27.448;2023-02-11T00:57:53;103163.25;;;-4.11;97.09
8575;BME280;4325;42.520;27.448;2023-02-11T01:00:20;103150.38;;;-4.17;96.92
8575;BME280;4325;42.520;27.448;2023-02-11T01:02:47;103155.00;;;-4.19;96.78
8575;BME280;4325;42.520;27.448;2023-02-11T01:05:14;103161.06;;;-4.17;97.06
8575;BME280;4325;42.520;27.448;2023-02-11T01:07:42;103163.22;;;-4.22;96.87
8575;BME280;4325;42.520;27.448;2023-02-11T01:10:09;103156.16;;;-4.23;96.88
8575;BME280;4325;42.520;27.448;2023-02-11T01:12:36;103161.50;;;-4.23;95.97
8575;BME280;4325;42.520;27.448;2023-02-11T01:15:07;103168.16;;;-4.28;95.52
8575;BME280;4325;42.520;27.448;2023-02-11T01:17:35;103165.63;;;-4.30;95.43
8575;BME280;4325;42.520;27.448;2023-02-11T01:20:02;103153.13;;;-4.29;95.85
8575;BME280;4325;42.520;27.448;2023-02-11T01:22:29;103156.38;;;-4.26;95.55
8575;BME280;4325;42.520;27.448;2023-02-11T01:24:57;103158.38;;;-4.17;95.53
8575;BME280;4325;42.520;27.448;2023-02-11T01:27:24;103154.72;;;-4.16;94.02
8575;BME280;4325;42.520;27.448;2023-02-11T01:29:51;103152.31;;;-4.19;93.84
8575;BME280;4325;42.520;27.448;2023-02-11T01:32:18;103148.03;;;-4.21;93.26
8575;BME280;4325;42.520;27.448;2023-02-11T01:34:44;103149.72;;;-4.20;93.08
8575;BME280;4325;42.520;27.448;2023-02-11T01:37:12;103147.19;;;-4.22;93.29
8575;BME280;4325;42.520;27.448;2023-02-11T01:39:39;103159.34;;;-4.18;93.10
8575;BME280;4325;42.520;27.448;2023-02-11T01:42:10;103152.31;;;-4.19;93.23
8575;BME280;4325;42.520;27.448;2023-02-11T01:44:41;103152.06;;;-4.16;93.26
8575;BME280;4325;42.520;27.448;2023-02-11T01:47:08;103154.63;;;-4.14;92.98
8575;BME280;4325;42.520;27.448;2023-02-11T01:49:38;103143.03;;;-4.26;93.17
8575;BME280;4325;42.520;27.448;2023-02-11T01:52:10;103155.06;;;-4.20;93.12
8575;BME280;4325;42.520;27.448;2023-02-11T01:54:40;103155.00;;;-4.19;93.16
8575;BME280;4325;42.520;27.448;2023-02-11T01:57:30;103148.66;;;-4.18;92.97
8575;BME280;4325;42.520;27.448;2023-02-11T02:00:03;103148.41;;;-4.15;92.65
8575;BME280;4325;42.520;27.448;2023-02-11T02:02:33;103141.34;;;-4.16;92.61
8575;BME280;4325;42.520;27.448;2023-02-11T02:05:07;103138.16;;;-4.21;92.58
8575;BME280;4325;42.520;27.448;2023-02-11T02:07:38;103144.28;;;-4.19;92.87
8575;BME280;4325;42.520;27.448;2023-02-11T02:10:13;103136.72;;;-4.25;94.80
8575;BME280;4325;42.520;27.448;2023-02-11T02:12:42;103129.56;;;-4.24;95.01
8575;BME280;4325;42.520;27.448;2023-02-11T02:15:24;103134.78;;;-4.23;98.03
8575;BME280;4325;42.520;27.448;2023-02-11T02:17:57;103123.13;;;-4.22;99.77
8575;BME280;4325;42.520;27.448;2023-02-11T02:21:02;103124.28;;;-4.26;100.00
8575;BME280;4325;42.520;27.448;2023-02-11T02:24:02;103133.91;;;-4.23;100.00
8575;BME280;4325;42.520;27.448;2023-02-11T02:27:03;103130.91;;;-4.19;100.00
8575;BME280;4325;42.520;27.448;2023-02-11T02:32:50;103133.59;;;-4.19;100.00
8575;BME280;4325;42.520;27.448;2023-02-11T02:35:28;103131.75;;;-4.18;100.00
8575;BME280;4325;42.520;27.448;2023-02-11T02:38:04;103122.53;;;-4.14;100.00
8575;BME280;4325;42.520;27.448;2023-02-11T02:40:35;103130.16;;;-4.21;100.00
8575;BME280;4325;42.520;27.448;2023-02-11T02:43:06;103132.81;;;-4.21;100.00
8575;BME280;4325;42.520;27.448;2023-02-11T02:45:35;103125.56;;;-4.19;100.00
8575;BME280;4325;42.520;27.448;2023-02-11T02:48:05;103129.81;;;-4.16;100.00
8575;BME280;4325;42.520;27.448;2023-02-11T02:50:34;103125.06;;;-4.13;100.00
8575;BME280;4325;42.520;27.448;2023-02-11T02:53:16;103127.38;;;-4.08;100.00
8575;BME280;4325;42.520;27.448;2023-02-11T02:55:56;103123.75;;;-4.07;100.00
8575;BME280;4325;42.520;27.448;2023-02-11T02:58:53;103125.94;;;-4.12;100.00
8575;BME280;4325;42.520;27.448;2023-02-11T03:01:29;103127.16;;;-4.05;100.00
8575;BME280;4325;42.520;27.448;2023-02-11T03:04:09;103135.69;;;-4.00;100.00
8575;BME280;4325;42.520;27.448;2023-02-11T03:06:46;103137.50;;;-4.01;100.00
8575;BME280;4325;42.520;27.448;2023-02-11T03:09:18;103139.22;;;-3.99;98.65
8575;BME280;4325;42.520;27.448;2023-02-11T03:11:47;103135.06;;;-4.04;97.71
8575;BME280;4325;42.520;27.448;2023-02-11T03:14:16;103138.94;;;-4.08;95.94
8575;BME280;4325;42.520;27.448;2023-02-11T03:16:44;103130.91;;;-4.08;95.30
8575;BME280;4325;42.520;27.448;2023-02-11T03:19:17;103134.47;;;-4.07;94.07
8575;BME280;4325;42.520;27.448;2023-02-11T03:21:46;103133.38;;;-4.05;93.22
8575;BME280;4325;42.520;27.448;2023-02-11T03:24:19;103139.44;;;-4.03;92.35
8575;BME280;4325;42.520;27.448;2023-02-11T03:26:49;103141.03;;;-4.00;91.81
8575;BME280;4325;42.520;27.448;2023-02-11T03:29:21;103147.00;;;-3.96;91.68
8575;BME280;4325;42.520;27.448;2023-02-11T03:31:55;103139.47;;;-3.91;91.53
8575;BME280;4325;42.520;27.448;2023-02-11T03:34:30;103137.53;;;-3.89;91.07
8575;BME280;4325;42.520;27.448;2023-02-11T03:37:01;103139.13;;;-3.87;90.84
8575;BME280;4325;42.520;27.448;2023-02-11T03:39:35;103143.22;;;-3.94;90.27
8575;BME280;4325;42.520;27.448;2023-02-11T03:42:05;103139.47;;;-3.91;90.18
8575;BME280;4325;42.520;27.448;2023-02-11T03:44:39;103142.72;;;-3.99;90.75
8575;BME280;4325;42.520;27.448;2023-02-11T03:47:09;103139.81;;;-4.07;90.93
8575;BME280;4325;42.520;27.448;2023-02-11T03:49:40;103135.03;;;-4.15;91.59
8575;BME280;4325;42.520;27.448;2023-02-11T03:52:08;103136.88;;;-4.15;91.54
8575;BME280;4325;42.520;27.448;2023-02-11T03:54:38;103134.41;;;-4.18;91.66
8575;BME280;4325;42.520;27.448;2023-02-11T03:57:07;103131.88;;;-4.20;91.52
8575;BME280;4325;42.520;27.448;2023-02-11T03:59:49;103139.66;;;-4.17;91.78
8575;BME280;4325;42.520;27.448;2023-02-11T04:02:16;103137.22;;;-4.20;91.34
8575;BME280;4325;42.520;27.448;2023-02-11T04:04:44;103143.28;;;-4.18;91.68
8575;BME280;4325;42.520;27.448;2023-02-11T04:07:12;103136.25;;;-4.19;91.98
8575;BME280;4325;42.520;27.448;2023-02-11T04:09:39;103127.47;;;-4.21;90.41
8575;BME280;4325;42.520;27.448;2023-02-11T04:12:06;103128.69;;;-4.25;89.79
8575;BME280;4325;42.520;27.448;2023-02-11T04:14:34;103138.88;;;-4.30;89.35
8575;BME280;4325;42.520;27.448;2023-02-11T04:17:01;103131.44;;;-4.37;89.26
8575;BME280;4325;42.520;27.448;2023-02-11T04:19:27;103131.44;;;-4.37;90.08
8575;BME280;4325;42.520;27.448;2023-02-11T04:21:56;103146.47;;;-4.47;89.31
8575;BME280;4325;42.520;27.448;2023-02-11T04:24:23;103143.28;;;-4.52;90.19
8575;BME280;4325;42.520;27.448;2023-02-11T04:26:50;103138.78;;;-4.52;90.43
8575;BME280;4325;42.520;27.448;2023-02-11T04:29:17;103140.28;;;-4.48;91.00
8575;BME280;4325;42.520;27.448;2023-02-11T04:31:44;103143.91;;;-4.49;90.76
8575;BME280;4325;42.520;27.448;2023-02-11T04:34:11;103142.47;;;-4.53;90.96
8575;BME280;4325;42.520;27.448;2023-02-11T04:36:38;103131.50;;;-4.50;91.59
8575;BME280;4325;42.520;27.448;2023-02-11T04:39:06;103137.56;;;-4.59;91.24
8575;BME280;4325;42.520;27.448;2023-02-11T04:41:33;103141.09;;;-4.58;91.60
8575;BME280;4325;42.520;27.448;2023-02-11T04:44:00;103145.06;;;-4.64;91.57
8575;BME280;4325;42.520;27.448;2023-02-11T04:46:27;103134.38;;;-4.64;91.92
8575;BME280;4325;42.520;27.448;2023-02-11T04:48:54;103132.03;;;-4.69;91.87
8575;BME280;4325;42.520;27.448;2023-02-11T04:51:21;103129.50;;;-4.70;92.18
8575;BME280;4325;42.520;27.448;2023-02-11T04:53:48;103128.72;;;-4.72;92.78
8575;BME280;4325;42.520;27.448;2023-02-11T04:56:16;103124.59;;;-4.76;92.84
8575;BME280;4325;42.520;27.448;2023-02-11T04:58:43;103130.78;;;-4.76;93.24
8575;BME280;4325;42.520;27.448;2023-02-11T05:01:12;103124.59;;;-4.76;93.67
8575;BME280;4325;42.520;27.448;2023-02-11T05:03:39;103115.47;;;-4.85;93.82
8575;BME280;4325;42.520;27.448;2023-02-11T05:06:08;103126.75;;;-4.81;93.86
8575;BME280;4325;42.520;27.448;2023-02-11T05:08:35;103120.16;;;-4.88;94.15
8575;BME280;4325;42.520;27.448;2023-02-11T05:11:02;103129.16;;;-4.89;95.16
8575;BME280;4325;42.520;27.448;2023-02-11T05:13:30;103119.78;;;-4.95;96.31
8575;BME280;4325;42.520;27.448;2023-02-11T05:15:57;103117.44;;;-4.99;96.77
8575;BME280;4325;42.520;27.448;2023-02-11T05:18:24;103115.00;;;-5.02;97.43
8575;BME280;4325;42.520;27.448;2023-02-11T05:20:51;103110.72;;;-5.05;99.24
8575;BME280;4325;42.520;27.448;2023-02-11T05:23:18;103110.38;;;-5.00;100.00
8575;BME280;4325;42.520;27.448;2023-02-11T05:25:45;103110.16;;;-4.97;100.00
8575;BME280;4325;42.520;27.448;2023-02-11T05:28:11;103108.44;;;-4.98;100.00
8575;BME280;4325;42.520;27.448;2023-02-11T05:30:40;103117.19;;;-4.96;100.00
8575;BME280;4325;42.520;27.448;2023-02-11T05:33:06;103115.28;;;-4.94;100.00
8575;BME280;4325;42.520;27.448;2023-02-11T05:35:33;103118.22;;;-4.86;100.00
8575;BME280;4325;42.520;27.448;2023-02-11T05:38:00;103119.72;;;-4.82;99.93
8575;BME280;4325;42.520;27.448;2023-02-11T05:40:27;103118.75;;;-4.81;99.56
8575;BME280;4325;42.520;27.448;2023-02-11T05:42:54;103120.97;;;-4.75;97.19
8575;BME280;4325;42.520;27.448;2023-02-11T05:45:22;103114.28;;;-4.70;96.20
8575;BME280;4325;42.520;27.448;2023-02-11T05:47:50;103117.09;;;-4.71;94.78
8575;BME280;4325;42.520;27.448;2023-02-11T05:50:17;103122.75;;;-4.52;94.66
8575;BME280;4325;42.520;27.448;2023-02-11T05:52:44;103124.50;;;-4.40;93.18
8575;BME280;4325;42.520;27.448;2023-02-11T05:55:11;103128.91;;;-4.39;92.29
8575;BME280;4325;42.520;27.448;2023-02-11T05:57:38;103132.69;;;-4.30;91.50
8575;BME280;4325;42.520;27.448;2023-02-11T06:00:06;103131.13;;;-4.22;91.18
8575;BME280;4325;42.520;27.448;2023-02-11T06:02:33;103126.53;;;-4.09;91.31
8575;BME280;4325;42.520;27.448;2023-02-11T06:05:01;103127.53;;;-3.98;90.55
8575;BME280;4325;42.520;27.448;2023-02-11T06:07:29;103133.66;;;-3.85;90.14
8575;BME280;4325;42.520;27.448;2023-02-11T06:09:56;103129.63;;;-3.69;90.34
8575;BME280;4325;42.520;27.448;2023-02-11T06:12:23;103119.69;;;-3.56;89.21
8575;BME280;4325;42.520;27.448;2023-02-11T06:14:51;103116.63;;;-3.51;88.95
8575;BME280;4325;42.520;27.448;2023-02-11T06:17:18;103115.88;;;-3.42;88.42
8575;BME280;4325;42.520;27.448;2023-02-11T06:19:45;103113.22;;;-3.31;88.83
8575;BME280;4325;42.520;27.448;2023-02-11T06:22:13;103119.03;;;-3.15;87.76
8575;BME280;4325;42.520;27.448;2023-02-11T06:24:40;103114.63;;;-3.05;86.14
8575;BME280;4325;42.520;27.448;2023-02-11T06:27:07;103121.44;;;-3.01;85.27
8575;BME280;4325;42.520;27.448;2023-02-11T06:29:34;103118.25;;;-2.95;84.97
8575;BME280;4325;42.520;27.448;2023-02-11T06:32:03;103134.44;;;-2.96;83.86
8575;BME280;4325;42.520;27.448;2023-02-11T06:34:30;103121.41;;;-2.90;83.93
8575;BME280;4325;42.520;27.448;2023-02-11T06:36:57;103125.41;;;-2.84;83.91
8575;BME280;4325;42.520;27.448;2023-02-11T06:39:25;103114.78;;;-2.75;82.62
8575;BME280;4325;42.520;27.448;2023-02-11T06:41:52;103127.50;;;-2.24;82.23
8575;BME280;4325;42.520;27.448;2023-02-11T06:44:19;103116.28;;;-1.27;78.25
8575;BME280;4325;42.520;27.448;2023-02-11T06:46:46;103119.63;;;0.00;68.79
8575;BME280;4325;42.520;27.448;2023-02-11T06:49:13;103104.19;;;1.74;60.73
8575;BME280;4325;42.520;27.448;2023-02-11T06:51:40;103113.50;;;4.21;51.28
8575;BME280;4325;42.520;27.448;2023-02-11T06:54:07;103101.72;;;5.98;44.95
8575;BME280;4325;42.520;27.448;2023-02-11T06:56:35;103104.31;;;6.29;42.09
8575;BME280;4325;42.520;27.448;2023-02-11T06:59:01;103114.44;;;5.75;40.49
8575;BME280;4325;42.520;27.448;2023-02-11T07:01:28;103104.09;;;4.94;41.84
8575;BME280;4325;42.520;27.448;2023-02-11T07:03:55;103110.94;;;6.12;41.11
8575;BME280;4325;42.520;27.448;2023-02-11T07:06:24;103105.66;;;7.27;38.54
8575;BME280;4325;42.520;27.448;2023-02-11T07:08:52;103105.44;;;8.34;35.77
8575;BME280;4325;42.520;27.448;2023-02-11T07:11:21;103097.28;;;8.75;34.83
8575;BME280;4325;42.520;27.448;2023-02-11T07:13:51;103104.44;;;8.21;34.92
8575;BME280;4325;42.520;27.448;2023-02-11T07:16:19;103107.88;;;7.80;35.47
8575;BME280;4325;42.520;27.448;2023-02-11T07:18:47;103105.06;;;7.95;35.05
8575;BME280;4325;42.520;27.448;2023-02-11T07:21:17;103099.56;;;7.46;35.91
8575;BME280;4325;42.520;27.448;2023-02-11T07:23:45;103103.31;;;7.87;35.49
8575;BME280;4325;42.520;27.448;2023-02-11T07:26:14;103095.88;;;9.53;34.31
8575;BME280;4325;42.520;27.448;2023-02-11T07:28:42;103090.22;;;9.87;32.18
8575;BME280;4325;42.520;27.448;2023-02-11T07:31:12;103093.81;;;10.20;32.35
8575;BME280;4325;42.520;27.448;2023-02-11T07:33:39;103087.03;;;11.13;31.19
8575;BME280;4325;42.520;27.448;2023-02-11T07:36:09;103089.13;;;12.36;29.32
8575;BME280;4325;42.520;27.448;2023-02-11T07:38:36;103090.38;;;12.58;28.62
8575;BME280;4325;42.520;27.448;2023-02-11T07:41:04;103079.94;;;14.62;27.61
8575;BME280;4325;42.520;27.448;2023-02-11T07:43:32;103068.25;;;14.83;25.74
8575;BME280;4325;42.520;27.448;2023-02-11T07:46:02;103070.91;;;15.74;24.99
8575;BME280;4325;42.520;27.448;2023-02-11T07:48:30;103062.66;;;16.62;23.71
8575;BME280;4325;42.520;27.448;2023-02-11T07:51:04;103067.38;;;16.28;23.60
8575;BME280;4325;42.520;27.448;2023-02-11T07:53:31;103072.91;;;13.78;26.09
8575;BME280;4325;42.520;27.448;2023-02-11T07:55:58;103078.94;;;11.62;28.47
8575;BME280;4325;42.520;27.448;2023-02-11T07:58:25;103071.28;;;12.81;28.09
8575;BME280;4325;42.520;27.448;2023-02-11T08:00:51;103068.03;;;14.73;26.43
8575;BME280;4325;42.520;27.448;2023-02-11T08:03:18;103067.72;;;15.82;24.34
8575;BME280;4325;42.520;27.448;2023-02-11T08:05:46;103061.84;;;15.45;24.36
8575;BME280;4325;42.520;27.448;2023-02-11T08:08:13;103062.06;;;16.82;23.34
8575;BME280;4325;42.520;27.448;2023-02-11T08:10:40;103058.75;;;16.25;23.25
8575;BME280;4325;42.520;27.448;2023-02-11T08:13:07;103057.22;;;16.89;22.34
8575;BME280;4325;42.520;27.448;2023-02-11T08:15:34;103056.22;;;16.78;22.57
8575;BME280;4325;42.520;27.448;2023-02-11T08:18:00;103053.13;;;16.96;23.17
8575;BME280;4325;42.520;27.448;2023-02-11T08:20:27;103046.13;;;19.66;21.91
8575;BME280;4325;42.520;27.448;2023-02-11T08:22:55;103048.06;;;19.91;20.75
8575;BME280;4325;42.520;27.448;2023-02-11T08:25:22;103040.59;;;18.84;20.88
8575;BME280;4325;42.520;27.448;2023-02-11T08:27:49;103041.13;;;18.29;21.76
8575;BME280;4325;42.520;27.448;2023-02-11T08:30:16;103036.22;;;21.39;20.65
8575;BME280;4325;42.520;27.448;2023-02-11T08:32:43;103040.69;;;21.35;18.36
8575;BME280;4325;42.520;27.448;2023-02-11T08:35:10;103037.66;;;19.11;19.62
8575;BME280;4325;42.520;27.448;2023-02-11T08:37:37;103041.28;;;17.23;21.31
8575;BME280;4325;42.520;27.448;2023-02-11T08:40:06;103041.50;;;15.84;22.66
8575;BME280;4325;42.520;27.448;2023-02-11T08:42:33;103036.72;;;16.30;23.14
8575;BME280;4325;42.520;27.448;2023-02-11T08:45:00;103037.19;;;18.67;21.04
8575;BME280;4325;42.520;27.448;2023-02-11T08:47:27;103021.53;;;19.03;21.14
8575;BME280;4325;42.520;27.448;2023-02-11T08:49:54;103024.13;;;21.15;19.37
8575;BME280;4325;42.520;27.448;2023-02-11T08:52:21;103014.53;;;22.27;18.77
8575;BME280;4325;42.520;27.448;2023-02-11T08:54:48;103016.94;;;22.39;18.75
8575;BME280;4325;42.520;27.448;2023-02-11T08:57:16;103017.59;;;21.68;19.15
8575;BME280;4325;42.520;27.448;2023-02-11T08:59:43;103011.34;;;21.81;19.47
8575;BME280;4325;42.520;27.448;2023-02-11T09:02:11;103010.25;;;19.60;21.06
8575;BME280;4325;42.520;27.448;2023-02-11T09:04:38;103013.56;;;20.27;21.18
8575;BME280;4325;42.520;27.448;2023-02-11T09:07:05;102998.75;;;22.17;19.47
8575;BME280;4325;42.520;27.448;2023-02-11T09:09:32;102992.19;;;23.73;18.37
8575;BME280;4325;42.520;27.448;2023-02-11T09:11:59;102986.06;;;26.00;16.91
8575;BME280;4325;42.520;27.448;2023-02-11T09:14:27;102973.22;;;26.95;16.70
8575;BME280;4325;42.520;27.448;2023-02-11T09:16:54;102981.84;;;28.31;14.74
8575;BME280;4325;42.520;27.448;2023-02-11T09:19:22;102977.78;;;28.11;14.63
8575;BME280;4325;42.520;27.448;2023-02-11T09:21:49;102957.81;;;27.70;14.43
8575;BME280;4325;42.520;27.448;2023-02-11T09:24:16;102956.16;;;25.65;15.70
8575;BME280;4325;42.520;27.448;2023-02-11T09:26:43;102959.31;;;24.78;16.40
8575;BME280;4325;42.520;27.448;2023-02-11T09:29:10;102951.75;;;21.72;17.73
8575;BME280;4325;42.520;27.448;2023-02-11T09:31:39;102949.94;;;19.91;18.93
8575;BME280;4325;42.520;27.448;2023-02-11T09:34:05;102945.03;;;22.30;18.18
8575;BME280;4325;42.520;27.448;2023-02-11T09:36:34;102924.84;;;24.91;15.70
8575;BME280;4325;42.520;27.448;2023-02-11T09:39:03;102928.63;;;25.76;14.58
8575;BME280;4325;42.520;27.448;2023-02-11T09:41:38;102926.34;;;22.50;17.11
8575;BME280;4325;42.520;27.448;2023-02-11T09:44:15;102897.81;;;21.82;17.39
8575;BME280;4325;42.520;27.448;2023-02-11T09:46:49;102912.84;;;20.84;17.58
8575;BME280;4325;42.520;27.448;2023-02-11T09:49:22;102904.19;;;22.34;16.40
8575;BME280;4325;42.520;27.448;2023-02-11T09:51:52;102900.50;;;21.68;16.69
8575;BME280;4325;42.520;27.448;2023-02-11T09:54:27;102899.50;;;20.76;17.14
8575;BME280;4325;42.520;27.448;2023-02-11T09:56:55;102901.53;;;18.76;18.02
8575;BME280;4325;42.520;27.448;2023-02-11T09:59:22;102893.41;;;17.97;19.67
8575;BME280;4325;42.520;27.448;2023-02-11T10:01:54;102891.38;;;21.86;16.61
8575;BME280;4325;42.520;27.448;2023-02-11T10:04:38;102882.28;;;23.21;16.60
8575;BME280;4325;42.520;27.448;2023-02-11T10:07:16;102873.50;;;22.77;15.27
8575;BME280;4325;42.520;27.448;2023-02-11T10:09:59;102875.16;;;21.36;16.26
8575;BME280;4325;42.520;27.448;2023-02-11T10:12:40;102878.84;;;20.44;17.28
8575;BME280;4325;42.520;27.448;2023-02-11T10:15:17;102871.56;;;18.78;18.18
8575;BME280;4325;42.520;27.448;2023-02-11T10:17:59;102871.97;;;20.16;17.25
8575;BME280;4325;42.520;27.448;2023-02-11T10:20:31;102861.06;;;17.61;18.73
8575;BME280;4325;42.520;27.448;2023-02-11T10:23:00;102863.97;;;17.12;19.45
8575;BME280;4325;42.520;27.448;2023-02-11T10:25:33;102861.59;;;19.02;17.94
8575;BME280;4325;42.520;27.448;2023-02-11T10:28:10;102856.34;;;18.18;18.75
8575;BME280;4325;42.520;27.448;2023-02-11T10:30:41;102850.00;;;17.29;19.22
8575;BME280;4325;42.520;27.448;2023-02-11T10:33:16;102848.06;;;18.28;18.98
8575;BME280;4325;42.520;27.448;2023-02-11T10:35:45;102839.91;;;19.19;18.01
8575;BME280;4325;42.520;27.448;2023-02-11T10:38:12;102824.28;;;21.20;16.46
8575;BME280;4325;42.520;27.448;2023-02-11T10:40:39;102823.75;;;20.40;17.27
8575;BME280;4325;42.520;27.448;2023-02-11T10:43:09;102822.97;;;19.51;17.82
8575;BME280;4325;42.520;27.448;2023-02-11T10:45:40;102814.00;;;19.69;17.10
8575;BME280;4325;42.520;27.448;2023-02-11T10:48:37;102808.00;;;20.98;16.65
8575;BME280;4325;42.520;27.448;2023-02-11T10:51:15;102804.13;;;20.99;16.32
8575;BME280;4325;42.520;27.448;2023-02-11T10:53:43;102798.66;;;22.18;15.65
8575;BME280;4325;42.520;27.448;2023-02-11T10:56:13;102794.78;;;23.07;15.48
8575;BME280;4325;42.520;27.448;2023-02-11T10:58:54;102790.31;;;24.20;13.89
8575;BME280;4325;42.520;27.448;2023-02-11T11:01:21;102787.69;;;22.96;14.86
8575;BME280;4325;42.520;27.448;2023-02-11T11:03:51;102789.50;;;23.51;14.61
8575;BME280;4325;42.520;27.448;2023-02-11T11:06:28;102782.28;;;23.78;14.60
8575;BME280;4325;42.520;27.448;2023-02-11T11:08:56;102784.97;;;21.50;15.41
8575;BME280;4325;42.520;27.448;2023-02-11T11:11:25;102780.16;;;20.98;16.27
8575;BME280;4325;42.520;27.448;2023-02-11T11:13:54;102776.84;;;20.14;16.55
8575;BME280;4325;42.520;27.448;2023-02-11T11:16:24;102770.19;;;20.92;16.53
8575;BME280;4325;42.520;27.448;2023-02-11T11:19:13;102753.38;;;20.35;16.37
8575;BME280;4325;42.520;27.448;2023-02-11T11:21:42;102754.19;;;19.82;16.85
8575;BME280;4325;42.520;27.448;2023-02-11T11:24:16;102756.13;;;20.40;16.46
8575;BME280;4325;42.520;27.448;2023-02-11T11:26:46;102758.66;;;21.85;15.36
8575;BME280;4325;42.520;27.448;2023-02-11T11:29:15;102749.38;;;19.18;16.47
8575;BME280;4325;42.520;27.448;2023-02-11T11:31:48;102749.19;;;17.77;17.40
8575;BME280;4325;42.520;27.448;2023-02-11T11:34:26;102740.28;;;17.18;18.06
8575;BME280;4325;42.520;27.448;2023-02-11T11:36:55;102734.00;;;17.90;17.55
8575;BME280;4325;42.520;27.448;2023-02-11T11:39:24;102728.88;;;18.79;17.20
8575;BME280;4325;42.520;27.448;2023-02-11T11:41:54;102722.41;;;20.03;16.19
8575;BME280;4325;42.520;27.448;2023-02-11T11:44:28;102713.50;;;20.01;16.17
8575;BME280;4325;42.520;27.448;2023-02-11T11:47:21;102709.72;;;20.64;15.86
8575;BME280;4325;42.520;27.448;2023-02-11T11:50:00;102704.53;;;22.05;15.24
8575;BME280;4325;42.520;27.448;2023-02-11T11:52:38;102700.31;;;23.36;13.95
8575;BME280;4325;42.520;27.448;2023-02-11T11:55:13;102696.88;;;27.32;12.64
8575;BME280;4325;42.520;27.448;2023-02-11T11:57:42;102687.28;;;25.93;12.59
8575;BME280;4325;42.520;27.448;2023-02-11T12:00:14;102673.50;;;24.56;12.69
8575;BME280;4325;42.520;27.448;2023-02-11T12:02:58;102681.59;;;23.50;13.07
8575;BME280;4325;42.520;27.448;2023-02-11T12:05:34;102686.16;;;22.55;13.63
8575;BME280;4325;42.520;27.448;2023-02-11T12:08:10;102684.69;;;20.64;14.85
8575;BME280;4325;42.520;27.448;2023-02-11T12:10:56;102680.38;;;21.95;14.31
8575;BME280;4325;42.520;27.448;2023-02-11T12:13:37;102671.66;;;22.53;13.76
8575;BME280;4325;42.520;27.448;2023-02-11T12:16:14;102675.66;;;22.14;13.82
8575;BME280;4325;42.520;27.448;2023-02-11T12:19:15;102664.88;;;21.23;14.83
8575;BME280;4325;42.520;27.448;2023-02-11T12:21:54;102661.53;;;19.42;15.67
8575;BME280;4325;42.520;27.448;2023-02-11T12:24:34;102658.69;;;18.58;16.33
8575;BME280;4325;42.520;27.448;2023-02-11T12:27:13;102656.88;;;19.87;16.08
8575;BME280;4325;42.520;27.448;2023-02-11T12:29:53;102653.84;;;19.83;15.90
8575;BME280;4325;42.520;27.448;2023-02-11T12:32:29;102647.84;;;20.10;15.89
8575;BME280;4325;42.520;27.448;2023-02-11T12:38:11;102646.38;;;21.75;14.68
8575;BME280;4325;42.520;27.448;2023-02-11T12:40:44;102639.56;;;20.67;15.29
8575;BME280;4325;42.520;27.448;2023-02-11T12:43:19;102640.88;;;20.46;16.01
8575;BME280;4325;42.520;27.448;2023-02-11T12:46:08;102641.34;;;19.81;15.58
8575;BME280;4325;42.520;27.448;2023-02-11T12:48:58;102630.72;;;19.93;15.76
8575;BME280;4325;42.520;27.448;2023-02-11T12:51:42;102622.38;;;21.13;15.34
8575;BME280;4325;42.520;27.448;2023-02-11T12:54:19;102622.56;;;21.21;15.23
8575;BME280;4325;42.520;27.448;2023-02-11T12:56:53;102627.19;;;22.43;14.67
8575;BME280;4325;42.520;27.448;2023-02-11T12:59:37;102626.56;;;22.46;14.42
8575;BME280;4325;42.520;27.448;2023-02-11T13:02:15;102618.56;;;21.88;14.59
8575;BME280;4325;42.520;27.448;2023-02-11T13:04:48;102610.22;;;20.51;15.51
8575;BME280;4325;42.520;27.448;2023-02-11T13:07:20;102618.44;;;18.45;16.59
8575;BME280;4325;42.520;27.448;2023-02-11T13:09:55;102614.53;;;17.96;17.09
8575;BME280;4325;42.520;27.448;2023-02-11T13:12:25;102609.53;;;17.68;17.15
8575;BME280;4325;42.520;27.448;2023-02-11T13:15:13;102609.06;;;18.47;17.34
8575;BME280;4325;42.520;27.448;2023-02-11T13:17:47;102603.50;;;19.85;16.36
8575;BME280;4325;42.520;27.448;2023-02-11T13:20:31;102604.31;;;19.46;15.94
8575;BME280;4325;42.520;27.448;2023-02-11T13:23:07;102600.00;;;19.10;16.65
8575;BME280;4325;42.520;27.448;2023-02-11T13:25:43;102598.00;;;20.47;15.56